Time;durP1;ratioP1;P1;durP2;ratioP2;P2;SDS_P1;SDS_P2;PMS_P1;PMS_P2;Temp;Humidity;BMP_temperature;BMP_pressure;BME280_temperature;BME280_humidity;BME280_pressure;Samples;Min_cycle;Max_cycle;Signal;HPM_P1;HPM_P2
2021/05/09 00:00:27;;;;;;;4.05;2.15;;;13.20;73.50;;;;;;5094776;28;20512;-37
2021/05/09 00:02:54;;;;;;;6.68;4.00;;;13.30;73.20;;;;;;5094671;28;20051;-39
2021/05/09 00:05:20;;;;;;;7.18;4.15;;;13.30;72.90;;;;;;5095146;28;20024;-37
2021/05/09 00:07:45;;;;;;;7.88;2.67;;;13.40;72.50;;;;;;5093337;28;20032;-38
2021/05/09 00:10:12;;;;;;;4.80;2.28;;;13.50;72.10;;;;;;5095051;28;20112;-38
2021/05/09 00:12:38;;;;;;;2.70;2.20;;;13.30;72.70;;;;;;5095364;28;20098;-36
2021/05/09 00:15:07;;;;;;;6.50;2.72;;;13.20;73.00;;;;;;5094936;28;20050;-36
2021/05/09 00:17:33;;;;;;;2.63;2.05;;;13.10;73.70;;;;;;5094879;28;20032;-38
2021/05/09 00:19:59;;;;;;;5.70;2.72;;;13.00;74.00;;;;;;5095015;28;20024;-36
2021/05/09 00:22:24;;;;;;;6.00;2.85;;;13.10;74.20;;;;;;5094555;28;20024;-37
2021/05/09 00:24:50;;;;;;;2.92;2.35;;;12.80;74.30;;;;;;5094929;28;20512;-36
2021/05/09 00:27:16;;;;;;;6.47;2.42;;;12.80;74.40;;;;;;5094353;28;20028;-36
2021/05/09 00:29:41;;;;;;;3.70;2.22;;;12.80;74.90;;;;;;5093187;28;20024;-36
2021/05/09 00:32:07;;;;;;;4.22;2.35;;;12.80;75.00;;;;;;5094516;28;20024;-37
2021/05/09 00:34:33;;;;;;;2.20;1.67;;;12.90;74.70;;;;;;5094273;28;20020;-36
2021/05/09 00:36:58;;;;;;;4.57;2.65;;;12.80;74.50;;;;;;5094287;28;20024;-41
2021/05/09 00:39:24;;;;;;;5.15;2.67;;;12.60;75.60;;;;;;5093056;28;20028;-37
2021/05/09 00:42:03;;;;;;;4.15;2.63;;;12.40;76.80;;;;;;5092265;28;20031;-37
2021/05/09 00:44:29;;;;;;;5.82;3.75;;;12.50;76.20;;;;;;5094289;28;20107;-36
2021/05/09 00:46:55;;;;;;;8.15;2.88;;;12.70;75.50;;;;;;5094479;28;20031;-37
2021/05/09 00:49:21;;;;;;;4.32;2.15;;;12.50;76.30;;;;;;5094251;28;20072;-37
2021/05/09 00:51:48;;;;;;;2.95;2.20;;;12.60;75.80;;;;;;5094087;28;20424;-37
2021/05/09 00:54:21;;;;;;;6.85;4.55;;;12.60;75.60;;;;;;5093964;28;20016;-36
2021/05/09 00:56:48;;;;;;;3.75;3.00;;;12.30;76.90;;;;;;5093765;28;20178;-36
2021/05/09 00:59:16;;;;;;;4.28;2.35;;;12.40;76.50;;;;;;5094552;28;20020;-37
2021/05/09 01:01:45;;;;;;;5.35;2.72;;;12.30;76.40;;;;;;5092371;28;20503;-36
2021/05/09 01:04:13;;;;;;;4.15;2.50;;;12.50;76.00;;;;;;5093801;28;20024;-37
2021/05/09 01:06:40;;;;;;;8.18;2.58;;;12.40;76.20;;;;;;5093179;28;20035;-39
2021/05/09 01:09:06;;;;;;;3.17;2.22;;;12.30;76.70;;;;;;5092628;28;20024;-36
2021/05/09 01:11:32;;;;;;;3.13;2.30;;;12.50;76.30;;;;;;5093693;28;20533;-36
2021/05/09 01:13:57;;;;;;;4.07;2.42;;;12.40;76.50;;;;;;5094200;28;20444;-37
2021/05/09 01:16:23;;;;;;;4.30;1.88;;;12.60;75.80;;;;;;5092431;28;20031;-37
2021/05/09 01:18:49;;;;;;;2.70;2.30;;;12.60;75.50;;;;;;5093800;28;20017;-36
2021/05/09 01:21:14;;;;;;;3.47;2.28;;;12.60;75.50;;;;;;5093694;28;20027;-36
2021/05/09 01:23:40;;;;;;;6.05;2.92;;;12.50;75.80;;;;;;5093810;28;20027;-37
2021/05/09 01:26:06;;;;;;;5.22;2.70;;;12.70;75.10;;;;;;5093687;28;20113;-36
2021/05/09 01:28:32;;;;;;;3.50;1.92;;;12.80;74.30;;;;;;5093367;28;20408;-37
2021/05/09 01:30:57;;;;;;;3.10;2.05;;;12.70;74.60;;;;;;5093630;28;20387;-37
2021/05/09 01:33:23;;;;;;;3.10;2.17;;;12.50;75.10;;;;;;5093702;28;20044;-37
2021/05/09 01:35:49;;;;;;;5.28;2.38;;;12.40;75.30;;;;;;5092311;28;20016;-37
2021/05/09 01:38:15;;;;;;;4.30;2.45;;;12.30;75.70;;;;;;5093782;28;20357;-36
2021/05/09 01:40:40;;;;;;;2.90;2.20;;;12.50;75.10;;;;;;5092624;28;20034;-36
2021/05/09 01:43:06;;;;;;;2.05;1.85;;;12.50;74.90;;;;;;5092803;28;20115;-37
2021/05/09 01:45:32;;;;;;;2.13;1.90;;;12.70;74.60;;;;;;5093964;28;20023;-37
2021/05/09 01:47:57;;;;;;;3.83;1.90;;;12.60;74.40;;;;;;5094278;28;20032;-36
2021/05/09 01:50:23;;;;;;;2.88;1.92;;;12.50;74.70;;;;;;5093758;28;20020;-37
2021/05/09 01:52:49;;;;;;;2.40;1.85;;;12.60;74.40;;;;;;5094676;28;20130;-37
2021/05/09 01:55:24;;;;;;;3.15;1.63;;;12.50;74.60;;;;;;5097771;28;20087;-37
2021/05/09 01:57:50;;;;;;;3.92;1.73;;;12.40;74.60;;;;;;5095973;28;20026;-37
2021/05/09 02:00:18;;;;;;;2.58;1.75;;;12.40;74.60;;;;;;5097410;28;20016;-37
2021/05/09 02:02:44;;;;;;;3.40;1.80;;;12.40;74.50;;;;;;5096296;28;20033;-37
2021/05/09 02:05:10;;;;;;;3.70;2.10;;;12.40;74.50;;;;;;5097197;28;20464;-37
2021/05/09 02:07:36;;;;;;;2.85;2.25;;;12.40;74.60;;;;;;5097552;28;20111;-37
2021/05/09 02:10:05;;;;;;;1.92;1.58;;;12.30;75.10;;;;;;5097526;28;20048;-37
2021/05/09 02:12:31;;;;;;;3.67;2.17;;;12.30;74.90;;;;;;5097106;28;20032;-37
2021/05/09 02:14:56;;;;;;;2.80;2.40;;;12.30;74.80;;;;;;5097074;28;20024;-37
2021/05/09 02:17:23;;;;;;;3.03;2.28;;;12.20;75.60;;;;;;5097138;28;20093;-37
2021/05/09 02:19:49;;;;;;;3.25;2.45;;;12.20;75.70;;;;;;5097569;28;20046;-37
2021/05/09 02:22:15;;;;;;;3.47;2.53;;;12.10;76.40;;;;;;5096928;28;20024;-37
2021/05/09 02:24:44;;;;;;;3.20;2.63;;;12.10;76.60;;;;;;5097051;28;20074;-37
2021/05/09 02:27:10;;;;;;;4.15;2.60;;;12.00;76.40;;;;;;5096721;28;20031;-37
2021/05/09 02:29:36;;;;;;;5.97;2.60;;;12.10;76.20;;;;;;5097129;28;20465;-37
2021/05/09 02:32:02;;;;;;;5.28;2.50;;;12.00;76.30;;;;;;5096495;28;20024;-37
2021/05/09 02:34:28;;;;;;;4.03;2.75;;;12.10;76.50;;;;;;5097096;28;20097;-37
2021/05/09 02:36:54;;;;;;;3.47;2.60;;;11.80;76.90;;;;;;5096720;28;20024;-37
2021/05/09 02:39:20;;;;;;;6.60;3.60;;;11.80;77.50;;;;;;5096647;28;20030;-37
2021/05/09 02:41:45;;;;;;;3.40;2.58;;;11.70;78.00;;;;;;5096970;28;20032;-37
2021/05/09 02:44:11;;;;;;;5.13;2.45;;;11.80;77.60;;;;;;5096714;28;20032;-37
2021/05/09 02:46:37;;;;;;;8.25;3.67;;;11.80;77.80;;;;;;5096430;28;20473;-37
2021/05/09 02:49:03;;;;;;;4.57;2.55;;;11.80;77.40;;;;;;5096483;28;20020;-37
2021/05/09 02:51:29;;;;;;;3.70;2.67;;;11.80;77.50;;;;;;5096099;28;20040;-36
2021/05/09 02:53:55;;;;;;;3.97;2.75;;;11.80;77.60;;;;;;5095060;28;20431;-37
2021/05/09 02:56:20;;;;;;;5.25;2.25;;;11.90;77.00;;;;;;5096454;28;20050;-36
2021/05/09 02:58:46;;;;;;;4.13;2.55;;;11.80;77.60;;;;;;5096357;28;20095;-37
2021/05/09 03:01:12;;;;;;;3.50;2.50;;;11.90;76.90;;;;;;5095024;28;20102;-37
2021/05/09 03:03:37;;;;;;;4.47;2.67;;;11.90;77.10;;;;;;5095944;28;20060;-37
2021/05/09 03:06:03;;;;;;;2.88;2.50;;;11.80;77.50;;;;;;5096174;28;20524;-37
2021/05/09 03:08:29;;;;;;;3.10;2.60;;;12.00;76.70;;;;;;5096444;28;20076;-37
2021/05/09 03:10:54;;;;;;;3.25;2.17;;;11.90;76.80;;;;;;5095837;28;20030;-37
2021/05/09 03:13:20;;;;;;;4.53;2.40;;;12.00;77.00;;;;;;5096073;28;20121;-37
2021/05/09 03:15:46;;;;;;;7.70;2.30;;;12.20;76.30;;;;;;5096036;28;20154;-37
2021/05/09 03:18:12;;;;;;;5.97;2.78;;;12.20;76.00;;;;;;5095887;28;20026;-37
2021/05/09 03:20:37;;;;;;;4.57;2.50;;;12.00;76.60;;;;;;5094379;28;20581;-37
2021/05/09 03:23:06;;;;;;;6.32;2.28;;;11.80;77.10;;;;;;5095851;28;20024;-37
2021/05/09 03:25:32;;;;;;;3.67;2.08;;;11.90;77.30;;;;;;5095878;28;20023;-37
2021/05/09 03:27:58;;;;;;;4.93;2.72;;;11.80;77.50;;;;;;5096135;28;20170;-37
2021/05/09 03:30:24;;;;;;;4.47;2.60;;;11.80;77.30;;;;;;5095793;28;20055;-37
2021/05/09 03:32:50;;;;;;;4.00;2.28;;;11.80;77.40;;;;;;5095903;28;20031;-39
2021/05/09 03:35:16;;;;;;;3.55;2.85;;;11.80;77.40;;;;;;5095925;28;20024;-37
2021/05/09 03:37:41;;;;;;;3.78;2.30;;;11.60;78.20;;;;;;5095452;28;20095;-37
2021/05/09 03:40:09;;;;;;;5.28;2.60;;;11.60;78.40;;;;;;5095517;28;20032;-37
2021/05/09 03:42:35;;;;;;;3.40;2.47;;;11.50;78.50;;;;;;5095386;28;20031;-37
2021/05/09 03:45:01;;;;;;;4.43;2.45;;;11.40;79.00;;;;;;5095551;28;20028;-37
2021/05/09 03:47:27;;;;;;;6.13;2.78;;;11.40;79.30;;;;;;5095408;28;20035;-37
2021/05/09 03:49:57;;;;;;;2.85;2.08;;;11.60;78.60;;;;;;5095553;28;20036;-37
2021/05/09 03:52:23;;;;;;;2.97;2.30;;;11.80;78.10;;;;;;5094956;28;20040;-37
2021/05/09 03:54:49;;;;;;;4.22;2.00;;;11.90;77.50;;;;;;5093725;28;20077;-37
2021/05/09 03:57:15;;;;;;;4.63;2.55;;;11.80;77.60;;;;;;5095056;28;20032;-37
2021/05/09 03:59:41;;;;;;;6.07;2.75;;;11.90;77.20;;;;;;5095188;28;20063;-37
2021/05/09 04:02:07;;;;;;;4.53;2.83;;;12.00;77.10;;;;;;5095415;28;20525;-37
2021/05/09 04:04:33;;;;;;;5.97;2.80;;;12.00;76.80;;;;;;5093499;28;20028;-37
2021/05/09 04:06:59;;;;;;;4.25;2.58;;;12.00;77.00;;;;;;5094796;28;20031;-37
2021/05/09 04:09:24;;;;;;;5.45;2.80;;;12.00;77.00;;;;;;5094990;28;20104;-36
2021/05/09 04:11:50;;;;;;;2.60;2.40;;;11.90;76.90;;;;;;5094946;28;20027;-36
2021/05/09 04:14:16;;;;;;;3.20;2.38;;;11.80;77.40;;;;;;5094991;28;20028;-36
2021/05/09 04:16:42;;;;;;;5.50;2.45;;;11.80;77.50;;;;;;5094040;28;20028;-35
2021/05/09 04:19:07;;;;;;;5.65;2.67;;;11.60;78.30;;;;;;5095186;28;20035;-35
2021/05/09 04:21:33;;;;;;;6.35;2.60;;;11.40;78.90;;;;;;5094757;28;20056;-36
2021/05/09 04:23:59;;;;;;;5.32;2.72;;;11.30;79.70;;;;;;5094794;28;20107;-36
2021/05/09 04:26:25;;;;;;;3.55;2.90;;;11.30;79.90;;;;;;5095053;28;20032;-36
2021/05/09 04:28:50;;;;;;;7.97;2.40;;;11.30;80.00;;;;;;5094894;28;20391;-36
2021/05/09 04:31:16;;;;;;;7.97;2.38;;;11.30;80.10;;;;;;5095009;28;20028;-36
2021/05/09 04:33:42;;;;;;;4.65;2.53;;;11.50;80.00;;;;;;5095358;28;20028;-36
2021/05/09 04:36:07;;;;;;;3.90;2.25;;;11.50;79.50;;;;;;5094862;28;20174;-37
2021/05/09 04:38:33;;;;;;;6.00;3.40;;;11.70;78.80;;;;;;5094593;28;20357;-36
2021/05/09 04:40:59;;;;;;;4.50;2.85;;;12.10;77.90;;;;;;5093876;28;20452;-36
2021/05/09 04:43:24;;;;;;;5.20;2.35;;;12.30;76.80;;;;;;5094912;28;20053;-36
2021/05/09 04:45:52;;;;;;;3.00;2.45;;;12.40;76.50;;;;;;5094783;28;20021;-36
2021/05/09 04:48:18;;;;;;;4.60;2.50;;;12.30;76.20;;;;;;5094495;28;20556;-36
2021/05/09 04:50:45;;;;;;;6.05;2.20;;;12.40;76.30;;;;;;5094838;28;20016;-36
2021/05/09 04:53:22;;;;;;;4.45;2.58;;;12.60;75.60;;;;;;5094351;28;20048;-36
2021/05/09 04:55:48;;;;;;;4.13;2.25;;;12.80;74.70;;;;;;5094600;28;20031;-36
2021/05/09 04:58:14;;;;;;;3.28;2.38;;;12.80;74.60;;;;;;5093325;28;20020;-36
2021/05/09 05:00:39;;;;;;;3.45;2.20;;;12.80;74.90;;;;;;5094336;28;20074;-36
2021/05/09 05:03:05;;;;;;;2.95;2.22;;;12.80;75.00;;;;;;5094285;28;20064;-37
2021/05/09 05:05:30;;;;;;;4.20;2.70;;;12.90;74.90;;;;;;5094281;28;20036;-36
2021/05/09 05:07:56;;;;;;;6.78;2.05;;;13.10;74.20;;;;;;5094582;28;20534;-37
2021/05/09 05:10:22;;;;;;;5.53;1.98;;;13.30;73.20;;;;;;5094112;28;20103;-37
2021/05/09 05:12:47;;;;;;;5.78;2.88;;;13.50;72.20;;;;;;5094049;28;20028;-37
2021/05/09 05:15:13;;;;;;;4.90;2.22;;;13.50;72.30;;;;;;5094292;28;20024;-36
2021/05/09 05:17:39;;;;;;;4.80;2.67;;;13.70;71.80;;;;;;5094221;28;20478;-36
2021/05/09 05:20:05;;;;;;;3.53;2.05;;;13.80;71.10;;;;;;5094020;28;20055;-36
2021/05/09 05:22:30;;;;;;;3.08;2.00;;;13.90;70.60;;;;;;5094258;28;20024;-37
2021/05/09 05:24:56;;;;;;;3.05;1.67;;;13.90;71.10;;;;;;5094710;28;20046;-37
2021/05/09 05:27:22;;;;;;;4.35;2.03;;;13.90;71.50;;;;;;5093847;28;20031;-37
2021/05/09 05:29:47;;;;;;;3.90;2.20;;;13.90;71.70;;;;;;5094111;28;20028;-36
2021/05/09 05:32:13;;;;;;;2.40;2.00;;;13.90;71.80;;;;;;5096044;28;20021;-37
2021/05/09 05:34:38;;;;;;;5.28;2.72;;;13.80;72.30;;;;;;5094410;28;20031;-36
2021/05/09 05:37:04;;;;;;;5.40;2.28;;;13.80;72.00;;;;;;5093887;28;20031;-36
2021/05/09 05:39:30;;;;;;;5.32;2.50;;;13.70;72.30;;;;;;5093801;28;20024;-36
2021/05/09 05:41:56;;;;;;;5.60;2.60;;;13.70;73.10;;;;;;5093669;28;20024;-36
2021/05/09 05:44:22;;;;;;;2.72;1.88;;;14.00;71.20;;;;;;5093684;28;20059;-36
2021/05/09 05:46:48;;;;;;;3.40;2.67;;;13.90;71.90;;;;;;5092218;28;20082;-36
2021/05/09 05:49:14;;;;;;;3.40;2.50;;;14.00;72.50;;;;;;5093614;28;20028;-37
2021/05/09 05:51:39;;;;;;;4.57;2.67;;;13.80;72.60;;;;;;5094733;28;20048;-36
2021/05/09 05:54:05;;;;;;;3.55;2.15;;;13.70;73.60;;;;;;5093536;28;20069;-36
2021/05/09 05:56:31;;;;;;;4.75;2.60;;;13.80;74.10;;;;;;5093630;28;20361;-36
2021/05/09 05:58:56;;;;;;;3.35;2.65;;;13.80;73.70;;;;;;5093662;28;20020;-37
2021/05/09 06:01:22;;;;;;;2.67;1.95;;;13.80;73.80;;;;;;5093851;28;20095;-36
2021/05/09 06:03:48;;;;;;;4.10;2.67;;;14.00;73.60;;;;;;5093639;28;20365;-36
2021/05/09 06:06:13;;;;;;;3.60;2.20;;;14.20;71.80;;;;;;5093738;28;20035;-37
2021/05/09 06:08:40;;;;;;;1.88;1.60;;;14.50;69.40;;;;;;5093585;28;20035;-37
2021/05/09 06:11:06;;;;;;;4.43;1.92;;;14.70;68.70;;;;;;5092178;28;20024;-37
2021/05/09 06:13:32;;;;;;;3.28;1.45;;;14.80;68.20;;;;;;5093321;28;20021;-37
2021/05/09 06:15:57;;;;;;;3.17;1.40;;;15.20;66.50;;;;;;5093644;28;20064;-37
2021/05/09 06:18:23;;;;;;;6.55;2.30;;;15.40;65.40;;;;;;5092052;28;20024;-37
2021/05/09 06:20:49;;;;;;;6.70;2.55;;;15.50;65.10;;;;;;5092257;28;20070;-37
2021/05/09 06:23:20;;;;;;;2.85;1.33;;;15.90;62.90;;;;;;5093137;28;20016;-37
2021/05/09 06:25:46;;;;;;;2.08;1.42;;;16.00;62.40;;;;;;5093586;28;20020;-37
2021/05/09 06:28:12;;;;;;;2.47;1.98;;;16.20;61.50;;;;;;5093395;28;20039;-37
2021/05/09 06:30:38;;;;;;;2.70;1.90;;;16.30;61.00;;;;;;5092942;28;20089;-36
2021/05/09 06:33:03;;;;;;;2.35;1.55;;;16.30;60.80;;;;;;5093134;28;20063;-37
2021/05/09 06:35:29;;;;;;;2.45;1.20;;;16.40;60.10;;;;;;5093771;28;20024;-37
2021/05/09 06:37:55;;;;;;;5.43;2.30;;;16.70;58.90;;;;;;5093157;28;20031;-37
2021/05/09 06:40:21;;;;;;;5.03;1.60;;;16.80;58.30;;;;;;5096952;28;20047;-37
2021/05/09 06:42:57;;;;;;;1.10;1.00;;;16.90;58.50;;;;;;5096674;28;20040;-37
2021/05/09 06:45:26;;;;;;;4.78;1.40;;;17.20;56.40;;;;;;5096869;28;20051;-36
2021/05/09 06:47:52;;;;;;;1.83;0.95;;;17.30;55.40;;;;;;5096861;28;20444;-36
2021/05/09 06:50:17;;;;;;;1.65;1.10;;;17.30;55.50;;;;;;5096652;28;20024;-36
2021/05/09 06:52:43;;;;;;;1.77;1.13;;;17.60;54.30;;;;;;5096310;28;20047;-36
2021/05/09 06:55:11;;;;;;;1.70;1.30;;;18.00;52.70;;;;;;5096381;28;20024;-37
2021/05/09 06:57:37;;;;;;;3.65;1.52;;;18.10;52.60;;;;;;5096685;28;20048;-37
2021/05/09 07:00:09;;;;;;;1.58;1.00;;;18.20;52.40;;;;;;5096194;28;20107;-37
2021/05/09 07:02:34;;;;;;;2.63;1.27;;;18.20;52.80;;;;;;5096269;28;20020;-37
2021/05/09 07:05:00;;;;;;;2.00;1.48;;;18.30;51.90;;;;;;5096459;28;20073;-36
2021/05/09 07:07:26;;;;;;;2.17;1.30;;;18.30;51.60;;;;;;5094908;28;20418;-36
2021/05/09 07:09:52;;;;;;;3.22;1.40;;;18.30;51.10;;;;;;5096211;28;20028;-37
2021/05/09 07:12:17;;;;;;;3.13;1.25;;;18.50;50.70;;;;;;5095956;28;20060;-36
2021/05/09 07:14:43;;;;;;;2.95;1.17;;;18.50;51.20;;;;;;5096003;28;20028;-36
2021/05/09 07:17:09;;;;;;;3.25;1.42;;;18.80;50.30;;;;;;5095809;28;20020;-36
2021/05/09 07:19:35;;;;;;;1.85;1.20;;;18.90;49.50;;;;;;5096107;28;20020;-36
2021/05/09 07:22:04;;;;;;;3.38;1.08;;;18.90;49.80;;;;;;5095857;28;20353;-37
2021/05/09 07:24:30;;;;;;;1.27;1.17;;;19.10;49.50;;;;;;5096027;28;20152;-37
2021/05/09 07:26:56;;;;;;;1.10;1.00;;;19.10;49.80;;;;;;5096235;28;20393;-36
2021/05/09 07:29:21;;;;;;;2.35;1.40;;;19.30;49.60;;;;;;5095616;28;20480;-36
2021/05/09 07:31:47;;;;;;;1.52;1.10;;;19.50;49.40;;;;;;5095669;28;20032;-38
2021/05/09 07:34:14;;;;;;;3.38;1.20;;;19.60;49.30;;;;;;5095627;28;20032;-36
2021/05/09 07:36:39;;;;;;;2.80;1.23;;;19.70;48.60;;;;;;5095576;28;20421;-36
2021/05/09 07:39:08;;;;;;;1.83;1.20;;;20.00;47.50;;;;;;5095248;28;20024;-39
2021/05/09 07:41:34;;;;;;;1.17;1.08;;;20.10;47.60;;;;;;5096037;28;20073;-37
2021/05/09 07:44:02;;;;;;;1.60;1.33;;;20.50;46.40;;;;;;5095173;28;20379;-37
2021/05/09 07:46:28;;;;;;;1.10;1.02;;;20.80;45.70;;;;;;5095311;28;20058;-37
2021/05/09 07:48:53;;;;;;;2.67;1.40;;;21.00;45.00;;;;;;5093779;28;20475;-36
2021/05/09 07:51:19;;;;;;;1.80;1.30;;;20.90;44.80;;;;;;5093908;28;20044;-39
2021/05/09 07:53:46;;;;;;;1.98;1.50;;;21.30;44.20;;;;;;5095337;28;20032;-37
2021/05/09 07:56:12;;;;;;;4.32;0.88;;;21.90;42.40;;;;;;5094685;28;20020;-37
2021/05/09 07:58:37;;;;;;;6.43;1.10;;;21.80;42.50;;;;;;5093479;28;20055;-36
2021/05/09 08:01:04;;;;;;;3.65;1.70;;;21.80;42.80;;;;;;5094776;28;20070;-36
2021/05/09 08:03:30;;;;;;;1.88;1.27;;;22.20;42.40;;;;;;5094694;28;20021;-37
2021/05/09 08:05:56;;;;;;;1.67;1.20;;;22.40;41.50;;;;;;5094900;28;20024;-38
2021/05/09 08:08:28;;;;;;;3.53;1.42;;;22.50;41.20;;;;;;5094688;28;20028;-37
2021/05/09 08:10:53;;;;;;;3.80;1.40;;;22.80;39.90;;;;;;5094613;28;20020;-37
2021/05/09 08:13:19;;;;;;;2.67;1.13;;;22.90;39.90;;;;;;5093280;28;20035;-37
2021/05/09 08:15:45;;;;;;;1.52;1.30;;;22.60;39.50;;;;;;5094495;28;20038;-37
2021/05/09 08:18:11;;;;;;;1.23;1.13;;;23.10;38.30;;;;;;5094700;28;20020;-37
2021/05/09 08:20:36;;;;;;;1.27;1.15;;;23.10;37.70;;;;;;5094379;28;20020;-36
2021/05/09 08:23:03;;;;;;;1.83;1.33;;;23.20;38.30;;;;;;5093918;28;20032;-37
2021/05/09 08:25:29;;;;;;;2.15;1.13;;;22.80;39.50;;;;;;5094407;28;20049;-37
2021/05/09 08:27:55;;;;;;;3.38;0.88;;;23.20;39.20;;;;;;5092657;28;20032;-37
2021/05/09 08:30:23;;;;;;;2.97;1.30;;;23.60;37.90;;;;;;5094104;28;20024;-37
2021/05/09 08:32:49;;;;;;;2.00;0.93;;;24.00;37.20;;;;;;5094030;28;20031;-37
2021/05/09 08:35:14;;;;;;;3.08;1.00;;;24.20;37.20;;;;;;5094404;28;20103;-36
2021/05/09 08:37:42;;;;;;;2.15;1.15;;;24.40;37.30;;;;;;5094373;28;20024;-37
2021/05/09 08:40:13;;;;;;;3.45;1.02;;;24.70;37.00;;;;;;5076041;28;20028;-36
2021/05/09 08:42:40;;;;;;;3.22;1.30;;;24.70;36.90;;;;;;5094755;28;20037;-37
2021/05/09 08:45:06;;;;;;;3.25;1.20;;;24.60;38.00;;;;;;5094113;28;20030;-37
2021/05/09 08:47:41;;;;;;;1.98;1.10;;;24.80;37.90;;;;;;5092350;28;20028;-37
2021/05/09 08:50:28;;;;;;;2.35;1.45;;;24.60;38.20;;;;;;5092492;28;20035;-37
2021/05/09 08:52:55;;;;;;;4.38;1.20;;;24.20;39.30;;;;;;5093517;28;20044;-37
2021/05/09 08:55:26;;;;;;;2.47;1.63;;;24.00;39.20;;;;;;5093484;28;20052;-36
2021/05/09 08:57:54;;;;;;;1.33;1.10;;;23.50;40.70;;;;;;5093588;28;20024;-37
2021/05/09 09:00:20;;;;;;;1.83;1.48;;;23.70;40.60;;;;;;5093498;28;20103;-36
2021/05/09 09:02:46;;;;;;;1.85;1.30;;;23.80;40.80;;;;;;5093442;28;20440;-36
2021/05/09 09:05:12;;;;;;;5.68;2.40;;;24.30;39.90;;;;;;5092066;28;20115;-36
2021/05/09 09:07:49;;;;;;;3.80;1.50;;;24.10;40.30;;;;;;5093711;28;20060;-36
2021/05/09 09:10:35;;;;;;;2.88;1.70;;;23.90;40.30;;;;;;5092188;28;20028;-37
2021/05/09 09:13:02;;;;;;;3.55;1.30;;;23.60;40.90;;;;;;5093421;28;20123;-37
2021/05/09 09:15:48;;;;;;;2.22;1.30;;;23.80;40.50;;;;;;5093169;28;20016;-37
2021/05/09 09:18:38;;;;;;;1.65;1.27;;;24.00;40.30;;;;;;5091786;28;20451;-37
2021/05/09 09:21:25;;;;;;;2.75;1.63;;;24.60;38.60;;;;;;5093457;28;20024;-36
2021/05/09 09:23:56;;;;;;;1.38;0.90;;;24.50;38.50;;;;;;5093488;28;20035;-37
2021/05/09 09:26:32;;;;;;;2.22;1.35;;;25.40;37.20;;;;;;5093166;28;20361;-37
2021/05/09 09:28:59;;;;;;;3.03;1.45;;;25.60;36.80;;;;;;5093504;28;20044;-37
2021/05/09 09:31:39;;;;;;;3.95;1.45;;;26.10;36.00;;;;;;5092957;28;20020;-37
2021/05/09 09:34:05;;;;;;;2.10;1.30;;;26.00;35.90;;;;;;5091840;28;20031;-37
2021/05/09 09:36:31;;;;;;;2.20;1.27;;;26.10;36.00;;;;;;5093037;28;20032;-38
2021/05/09 09:38:57;;;;;;;4.22;1.42;;;26.50;35.40;;;;;;5092884;28;20468;-38
2021/05/09 09:41:23;;;;;;;2.00;1.17;;;26.70;35.10;;;;;;5092911;28;20064;-37
2021/05/09 09:44:09;;;;;;;2.38;1.25;;;26.60;35.10;;;;;;5093285;28;20499;-37
2021/05/09 09:46:48;;;;;;;4.78;1.55;;;26.50;35.50;;;;;;5092965;28;20440;-38
2021/05/09 09:49:21;;;;;;;4.53;1.45;;;27.30;34.80;;;;;;5092824;28;20020;-38
2021/05/09 09:51:49;;;;;;;1.45;1.20;;;27.40;34.70;;;;;;5093625;28;20055;-38
2021/05/09 09:54:33;;;;;;;4.88;2.20;;;27.80;34.00;;;;;;5093866;28;20047;-38
2021/05/09 09:57:00;;;;;;;2.67;1.52;;;27.90;34.30;;;;;;5091988;28;20043;-38
2021/05/09 09:59:26;;;;;;;4.80;1.73;;;27.30;34.90;;;;;;5093154;28;20118;-38
2021/05/09 10:01:52;;;;;;;2.65;1.50;;;27.30;35.20;;;;;;5092614;28;20024;-37
2021/05/09 10:04:18;;;;;;;3.22;1.48;;;28.10;33.70;;;;;;5092561;28;20058;-38
2021/05/09 10:06:44;;;;;;;2.00;1.48;;;28.10;34.40;;;;;;5074738;28;20032;-38
2021/05/09 10:09:10;;;;;;;2.22;1.60;;;28.40;33.20;;;;;;5092340;28;20054;-38
2021/05/09 10:11:36;;;;;;;5.85;1.52;;;27.70;34.60;;;;;;5092789;28;20488;-37
2021/05/09 10:14:06;;;;;;;6.70;2.60;;;27.30;35.30;;;;;;5095083;28;20040;-38
2021/05/09 10:16:39;;;;;;;4.55;1.50;;;27.30;35.40;;;;;;5095549;28;20078;-37
2021/05/09 10:19:11;;;;;;;4.50;1.40;;;27.30;35.70;;;;;;5097002;28;20411;-37
2021/05/09 10:21:39;;;;;;;1.90;1.50;;;27.50;35.60;;;;;;5095372;28;20028;-40
2021/05/09 10:24:07;;;;;;;3.25;1.38;;;27.70;35.10;;;;;;5096931;28;20032;-37
2021/05/09 10:26:42;;;;;;;3.58;1.17;;;27.70;35.70;;;;;;5096385;28;20028;-38
2021/05/09 10:29:09;;;;;;;1.90;1.58;;;27.30;36.00;;;;;;5095292;28;20032;-39
2021/05/09 10:31:34;;;;;;;2.05;1.55;;;26.80;36.50;;;;;;5096669;28;20050;-37
2021/05/09 10:34:00;;;;;;;2.97;1.60;;;27.10;36.00;;;;;;5096762;28;20028;-38
2021/05/09 10:36:25;;;;;;;5.18;1.70;;;28.10;34.70;;;;;;5095586;28;20408;-42
2021/05/09 10:39:18;;;;;;;2.67;1.35;;;27.90;35.00;;;;;;5096237;28;20027;-38
2021/05/09 10:41:53;;;;;;;3.38;1.90;;;28.20;34.20;;;;;;5097256;28;20024;-37
2021/05/09 10:44:37;;;;;;;2.33;1.58;;;27.50;34.90;;;;;;5094768;28;20424;-37
2021/05/09 10:47:05;;;;;;;2.38;1.52;;;26.80;36.20;;;;;;5096264;28;20024;-37
2021/05/09 10:49:31;;;;;;;3.83;1.55;;;26.50;37.00;;;;;;5096351;28;20113;-38
2021/05/09 10:51:57;;;;;;;2.72;1.38;;;26.40;37.40;;;;;;5094487;28;20044;-37
2021/05/09 10:54:24;;;;;;;2.90;1.35;;;26.40;37.10;;;;;;5096679;28;20099;-39
2021/05/09 10:56:52;;;;;;;1.70;1.40;;;26.50;37.20;;;;;;5095885;28;20020;-38
2021/05/09 10:59:19;;;;;;;3.60;1.52;;;26.40;37.20;;;;;;5096163;28;20433;-38
2021/05/09 11:01:45;;;;;;;3.72;1.70;;;26.20;37.50;;;;;;5096099;28;20093;-38
2021/05/09 11:04:14;;;;;;;2.20;2.00;;;26.90;36.80;;;;;;5095612;28;20028;-38
2021/05/09 11:06:49;;;;;;;5.78;1.83;;;27.30;35.90;;;;;;5095704;28;20031;-38
2021/05/09 11:09:29;;;;;;;2.22;1.45;;;27.20;36.00;;;;;;5095819;28;20064;-37
2021/05/09 11:11:59;;;;;;;9.82;2.05;;;27.30;35.50;;;;;;5095985;28;20063;-38
2021/05/09 11:14:25;;;;;;;2.22;1.63;;;27.10;35.70;;;;;;5095814;28;20151;-37
2021/05/09 11:17:02;;;;;;;3.35;1.60;;;27.30;35.80;;;;;;5095993;28;20056;-38
2021/05/09 11:20:07;;;;;;;1.73;1.33;;;26.80;36.20;;;;;;5095560;28;20024;-37
2021/05/09 11:22:33;;;;;;;5.43;1.75;;;26.30;37.30;;;;;;5095200;28;20035;-38
2021/05/09 11:25:00;;;;;;;3.35;1.70;;;26.40;36.90;;;;;;5095295;28;20476;-39
2021/05/09 11:27:26;;;;;;;4.25;2.00;;;26.50;36.90;;;;;;5095210;28;20081;-37
2021/05/09 11:29:53;;;;;;;3.05;1.98;;;26.90;36.30;;;;;;5095441;28;20024;-37
2021/05/09 11:32:20;;;;;;;3.03;1.65;;;27.50;35.30;;;;;;5095295;28;20024;-37
2021/05/09 11:34:57;;;;;;;2.50;1.80;;;27.70;34.90;;;;;;5095599;28;20020;-37
2021/05/09 11:37:31;;;;;;;2.45;1.50;;;27.30;35.30;;;;;;5095503;28;20058;-37
2021/05/09 11:39:59;;;;;;;3.65;1.83;;;27.20;35.50;;;;;;5094109;28;20035;-38
2021/05/09 11:42:28;;;;;;;1.98;1.27;;;27.30;35.70;;;;;;5095135;28;20120;-37
2021/05/09 11:44:56;;;;;;;3.67;1.67;;;27.80;33.70;;;;;;5095519;28;20065;-38
2021/05/09 11:47:27;;;;;;;2.72;1.88;;;27.80;33.80;;;;;;5095073;28;20052;-37
2021/05/09 11:50:04;;;;;;;3.88;1.92;;;28.40;33.00;;;;;;5093913;28;20024;-38
2021/05/09 11:52:39;;;;;;;2.80;1.42;;;29.00;32.30;;;;;;5094788;28;20051;-39
2021/05/09 11:55:08;;;;;;;4.05;1.95;;;29.00;32.50;;;;;;5094827;28;20020;-38
2021/05/09 11:57:34;;;;;;;3.20;1.90;;;30.10;30.60;;;;;;5095072;28;20024;-37
2021/05/09 12:00:10;;;;;;;3.88;1.45;;;30.00;30.50;;;;;;5093675;28;20430;-37
2021/05/09 12:02:40;;;;;;;1.63;1.52;;;29.60;30.90;;;;;;5095224;28;20028;-37
2021/05/09 12:05:13;;;;;;;2.53;1.58;;;29.50;30.90;;;;;;5094808;28;20028;-39
2021/05/09 12:07:47;;;;;;;4.65;1.67;;;29.20;31.60;;;;;;5094627;28;20112;-37
2021/05/09 12:10:14;;;;;;;3.92;1.90;;;29.50;31.60;;;;;;5094528;28;20031;-39
2021/05/09 12:12:42;;;;;;;2.83;1.60;;;29.30;31.40;;;;;;5094344;28;20031;-38
2021/05/09 12:15:11;;;;;;;4.40;1.80;;;29.10;31.90;;;;;;5094395;28;20034;-37
2021/05/09 12:17:49;;;;;;;4.03;1.30;;;29.50;31.20;;;;;;5093245;28;20020;-38
2021/05/09 12:20:27;;;;;;;2.22;1.63;;;29.90;30.50;;;;;;5092896;28;20111;-36
2021/05/09 12:22:53;;;;;;;3.88;1.58;;;30.00;29.80;;;;;;5093241;28;20414;-38
2021/05/09 12:25:42;;;;;;;4.10;1.38;;;29.40;31.00;;;;;;5092934;28;20020;-38
2021/05/09 12:28:19;;;;;;;5.20;2.33;;;30.00;30.30;;;;;;5094777;28;20028;-38
2021/05/09 12:30:50;;;;;;;4.05;2.97;;;31.00;29.40;;;;;;5094768;28;20028;-38
2021/05/09 12:33:30;;;;;;;3.20;1.33;;;30.40;29.40;;;;;;5092580;28;20066;-37
2021/05/09 12:35:58;;;;;;;2.50;1.65;;;30.20;29.70;;;;;;5093256;28;20080;-38
2021/05/09 12:38:26;;;;;;;2.25;1.50;;;30.20;29.50;;;;;;5094138;28;20468;-37
2021/05/09 12:41:05;;;;;;;1.13;1.02;;;30.50;29.40;;;;;;5093877;28;20099;-37
2021/05/09 12:43:43;;;;;;;4.82;1.50;;;30.30;29.50;;;;;;5093607;28;20028;-37
2021/05/09 12:46:09;;;;;;;2.55;1.42;;;29.80;30.10;;;;;;5093433;28;20059;-38
2021/05/09 12:48:34;;;;;;;1.95;1.08;;;29.40;30.90;;;;;;5094100;28;20109;-38
2021/05/09 12:51:14;;;;;;;1.60;1.33;;;29.80;30.60;;;;;;5100454;28;20414;-37